Friday, October 19, 2018, 3:33 AM EDT
Back to Local

KAVP, Wilkes-barre/scranton International

Location: Pittston, PA, United States Lat: 41.333
Local Time: 3:33 AM EDT ( 7:33 GMT) Lon: -75.733
Time Zone: US/Eastern Elev: 961 ft

Show me the last for .
Show Coded

Time T Td Feel RH Dir Speed Gust Alt SLP Vis Weather Sky Remarks
2018-10-19 02:54 31 29 27 92 210° 3 - 30.31 30.32 10 CLR None
2018-10-19 01:54 31 29 - 92 - Calm - 30.32 30.33 10 CLR 6-hr Min Temp (2am): 30.0°F
6-hr Max Temp (2am): 39.9°F
2018-10-19 00:54 32 29 - 88 - Calm - 30.31 30.32 10 CLR 24-hr Min Temp (1am): 30.9°F
24-hr Max Temp (1am): 46.9°F
2018-10-18 23:54 33 28 30 81 120° 3 - 30.33 30.34 10 CLR None
2018-10-18 22:54 35 28 30 75 110° 6 - 30.33 30.34 10 CLR None
2018-10-18 21:54 34 30 31 85 110° 3 - 30.34 30.35 10 CLR None
2018-10-18 20:54 35 31 32 84 120° 3 - 30.34 30.36 10 CLR None
2018-10-18 19:54 40 27 35 59 340° 7 - 30.33 30.35 10 CLR 6-hr Min Temp (8pm): 39.9°F
6-hr Max Temp (8pm): 46.9°F
2018-10-18 18:54 42 26 38 52 330° 7 - 30.33 30.35 10 CLR None
2018-10-18 17:54 45 24 41 43 330° 8 - 30.33 30.34 10 CLR None
2018-10-18 16:54 47 24 42 40 350° 10 - 30.33 30.34 10 CLR None
2018-10-18 15:54 47 22 41 36 310° 13 - 30.33 30.34 10 CLR None
2018-10-18 14:54 46 20 41 35 290° 10 - 30.34 30.35 10 CLR None
2018-10-18 13:54 45 20 40 36 310° 10 - 30.36 30.37 10 CLR 6-hr Min Temp (2pm): 37.0°F
6-hr Max Temp (2pm): 45.0°F
2018-10-18 12:54 44 21 37 39 290° 14 - 30.37 30.38 10 CLR None
2018-10-18 11:54 43 20 34 39 300° 14 21 30.38 30.39 10 FEW050 None
2018-10-18 10:54 42 20 32 40 340° 16 24 30.37 30.38 10 CLR None
2018-10-18 09:54 40 18 31 40 320° 12 18 30.36 30.37 10 FEW049 None
2018-10-18 08:54 38 21 30 50 330° 12 - 30.35 30.36 10 CLR None
2018-10-18 07:54 37 22 26 53 320° 10 21 30.33 30.34 10 OVC055 Peak wind: 29 mph (26 kts) from 330° at 58 min
6-hr Min Temp (8am): 36.0°F
6-hr Max Temp (8am): 39.0°F
2018-10-18 06:54 37 22 26 53 330° 14 22 30.31 30.32 10 FEW041 OVC055 None
2018-10-18 05:54 38 26 31 61 340° 9 - 30.29 30.29 10 FEW038 SCT047 BKN055 None
2018-10-18 04:54 39 26 28 59 310° 10 23 30.26 30.27 10 OVC065 None
2018-10-18 03:54 39 26 31 59 320° 14 - 30.24 30.24 10 SCT039 OVC075 None

Support USWX by starting your Amazon purchase here.